sensor_id;sensor_type;location;lat;lon;timestamp;pressure;altitude;pressure_sealevel;temperature
14023;BMP180;7086;48.116;11.580;2022-07-06T00:01:27;95835.00;;;23.30
14023;BMP180;7086;48.116;11.580;2022-07-06T00:03:55;95840.00;;;23.30
14023;BMP180;7086;48.116;11.580;2022-07-06T00:06:24;95838.00;;;23.30
14023;BMP180;7086;48.116;11.580;2022-07-06T00:08:53;95843.00;;;23.30
14023;BMP180;7086;48.116;11.580;2022-07-06T00:11:22;95840.00;;;23.30
14023;BMP180;7086;48.116;11.580;2022-07-06T00:13:51;95832.00;;;23.30
14023;BMP180;7086;48.116;11.580;2022-07-06T00:16:25;95835.00;;;23.30
14023;BMP180;7086;48.116;11.580;2022-07-06T00:18:54;95833.00;;;23.30
14023;BMP180;7086;48.116;11.580;2022-07-06T00:21:24;95836.00;;;23.30
14023;BMP180;7086;48.116;11.580;2022-07-06T00:23:53;95831.00;;;23.40
14023;BMP180;7086;48.116;11.580;2022-07-06T00:26:22;95834.00;;;23.40
14023;BMP180;7086;48.116;11.580;2022-07-06T00:28:50;95833.00;;;23.40
14023;BMP180;7086;48.116;11.580;2022-07-06T00:31:17;95824.00;;;23.40
14023;BMP180;7086;48.116;11.580;2022-07-06T00:33:47;95825.00;;;23.40
14023;BMP180;7086;48.116;11.580;2022-07-06T00:36:15;95832.00;;;23.40
14023;BMP180;7086;48.116;11.580;2022-07-06T00:38:43;95827.00;;;23.40
14023;BMP180;7086;48.116;11.580;2022-07-06T00:41:11;95838.00;;;23.40
14023;BMP180;7086;48.116;11.580;2022-07-06T00:43:49;95830.00;;;23.20
14023;BMP180;7086;48.116;11.580;2022-07-06T00:46:26;95823.00;;;23.30
14023;BMP180;7086;48.116;11.580;2022-07-06T00:48:56;95819.00;;;23.30
14023;BMP180;7086;48.116;11.580;2022-07-06T00:51:28;95812.00;;;23.30
14023;BMP180;7086;48.116;11.580;2022-07-06T00:53:59;95816.00;;;23.20
14023;BMP180;7086;48.116;11.580;2022-07-06T00:56:41;95811.00;;;23.20
14023;BMP180;7086;48.116;11.580;2022-07-06T00:59:13;95818.00;;;23.10
14023;BMP180;7086;48.116;11.580;2022-07-06T01:01:41;95817.00;;;23.10
14023;BMP180;7086;48.116;11.580;2022-07-06T01:04:11;95808.00;;;23.00
14023;BMP180;7086;48.116;11.580;2022-07-06T01:06:39;95815.00;;;23.00
14023;BMP180;7086;48.116;11.580;2022-07-06T01:09:07;95810.00;;;23.00
14023;BMP180;7086;48.116;11.580;2022-07-06T01:11:35;95811.00;;;22.90
14023;BMP180;7086;48.116;11.580;2022-07-06T01:14:03;95803.00;;;22.90
14023;BMP180;7086;48.116;11.580;2022-07-06T01:16:31;95807.00;;;22.90
14023;BMP180;7086;48.116;11.580;2022-07-06T01:18:59;95801.00;;;22.80
14023;BMP180;7086;48.116;11.580;2022-07-06T01:21:31;95800.00;;;22.80
14023;BMP180;7086;48.116;11.580;2022-07-06T01:24:00;95783.00;;;22.80
14023;BMP180;7086;48.116;11.580;2022-07-06T01:26:27;95790.00;;;22.80
14023;BMP180;7086;48.116;11.580;2022-07-06T01:28:55;95791.00;;;22.80
14023;BMP180;7086;48.116;11.580;2022-07-06T01:31:26;95786.00;;;22.80
14023;BMP180;7086;48.116;11.580;2022-07-06T01:33:57;95784.00;;;22.70
14023;BMP180;7086;48.116;11.580;2022-07-06T01:36:25;95783.00;;;22.70
14023;BMP180;7086;48.116;11.580;2022-07-06T01:38:57;95791.00;;;22.70
14023;BMP180;7086;48.116;11.580;2022-07-06T01:41:25;95782.00;;;22.70
14023;BMP180;7086;48.116;11.580;2022-07-06T01:43:54;95786.00;;;22.60
14023;BMP180;7086;48.116;11.580;2022-07-06T01:46:21;95792.00;;;22.60
14023;BMP180;7086;48.116;11.580;2022-07-06T01:48:51;95794.00;;;22.50
14023;BMP180;7086;48.116;11.580;2022-07-06T01:51:18;95794.00;;;22.50
14023;BMP180;7086;48.116;11.580;2022-07-06T01:53:46;95807.00;;;22.50
14023;BMP180;7086;48.116;11.580;2022-07-06T01:56:16;95797.00;;;22.40
14023;BMP180;7086;48.116;11.580;2022-07-06T01:58:45;95801.00;;;22.40
14023;BMP180;7086;48.116;11.580;2022-07-06T02:01:17;95797.00;;;22.40
14023;BMP180;7086;48.116;11.580;2022-07-06T02:03:46;95793.00;;;22.30
14023;BMP180;7086;48.116;11.580;2022-07-06T02:06:15;95796.00;;;22.30
14023;BMP180;7086;48.116;11.580;2022-07-06T02:08:43;95798.00;;;22.20
14023;BMP180;7086;48.116;11.580;2022-07-06T02:11:11;95796.00;;;22.20
14023;BMP180;7086;48.116;11.580;2022-07-06T02:13:41;95796.00;;;22.10
14023;BMP180;7086;48.116;11.580;2022-07-06T02:16:09;95800.00;;;22.10
14023;BMP180;7086;48.116;11.580;2022-07-06T02:18:38;95796.00;;;22.00
14023;BMP180;7086;48.116;11.580;2022-07-06T02:21:06;95792.00;;;22.00
14023;BMP180;7086;48.116;11.580;2022-07-06T02:23:35;95803.00;;;21.90
14023;BMP180;7086;48.116;11.580;2022-07-06T02:26:03;95808.00;;;21.90
14023;BMP180;7086;48.116;11.580;2022-07-06T02:28:32;95799.00;;;21.80
14023;BMP180;7086;48.116;11.580;2022-07-06T02:31:01;95806.00;;;21.80
14023;BMP180;7086;48.116;11.580;2022-07-06T02:33:29;95796.00;;;21.70
14023;BMP180;7086;48.116;11.580;2022-07-06T02:35:57;95799.00;;;21.70
14023;BMP180;7086;48.116;11.580;2022-07-06T02:38:24;95813.00;;;21.70
14023;BMP180;7086;48.116;11.580;2022-07-06T02:40:52;95816.00;;;21.70
14023;BMP180;7086;48.116;11.580;2022-07-06T02:43:20;95815.00;;;21.60
14023;BMP180;7086;48.116;11.580;2022-07-06T02:45:48;95805.00;;;21.60
14023;BMP180;7086;48.116;11.580;2022-07-06T02:48:17;95806.00;;;21.50
14023;BMP180;7086;48.116;11.580;2022-07-06T02:50:47;95811.00;;;21.50
14023;BMP180;7086;48.116;11.580;2022-07-06T02:53:15;95803.00;;;21.50
14023;BMP180;7086;48.116;11.580;2022-07-06T02:55:44;95805.00;;;21.40
14023;BMP180;7086;48.116;11.580;2022-07-06T02:58:12;95805.00;;;21.40
14023;BMP180;7086;48.116;11.580;2022-07-06T03:00:40;95811.00;;;21.40
14023;BMP180;7086;48.116;11.580;2022-07-06T03:03:07;95817.00;;;21.30
14023;BMP180;7086;48.116;11.580;2022-07-06T03:05:38;95817.00;;;21.30
14023;BMP180;7086;48.116;11.580;2022-07-06T03:08:05;95818.00;;;21.30
14023;BMP180;7086;48.116;11.580;2022-07-06T03:10:33;95815.00;;;21.20
14023;BMP180;7086;48.116;11.580;2022-07-06T03:13:01;95820.00;;;21.20
14023;BMP180;7086;48.116;11.580;2022-07-06T03:15:29;95827.00;;;21.20
14023;BMP180;7086;48.116;11.580;2022-07-06T03:17:56;95822.00;;;21.10
14023;BMP180;7086;48.116;11.580;2022-07-06T03:20:24;95832.00;;;21.10
14023;BMP180;7086;48.116;11.580;2022-07-06T03:22:54;95822.00;;;21.10
14023;BMP180;7086;48.116;11.580;2022-07-06T03:25:22;95826.00;;;21.10
14023;BMP180;7086;48.116;11.580;2022-07-06T03:27:50;95829.00;;;21.10
14023;BMP180;7086;48.116;11.580;2022-07-06T03:30:18;95819.00;;;21.10
14023;BMP180;7086;48.116;11.580;2022-07-06T03:32:45;95821.00;;;21.10
14023;BMP180;7086;48.116;11.580;2022-07-06T03:35:13;95823.00;;;21.10
14023;BMP180;7086;48.116;11.580;2022-07-06T03:37:42;95823.00;;;21.00
14023;BMP180;7086;48.116;11.580;2022-07-06T03:40:16;95816.00;;;21.00
14023;BMP180;7086;48.116;11.580;2022-07-06T03:42:44;95816.00;;;21.00
14023;BMP180;7086;48.116;11.580;2022-07-06T03:45:12;95812.00;;;21.00
14023;BMP180;7086;48.116;11.580;2022-07-06T03:47:39;95817.00;;;21.00
14023;BMP180;7086;48.116;11.580;2022-07-06T03:50:08;95819.00;;;21.00
14023;BMP180;7086;48.116;11.580;2022-07-06T03:52:36;95814.00;;;21.00
14023;BMP180;7086;48.116;11.580;2022-07-06T03:55:08;95817.00;;;21.10
14023;BMP180;7086;48.116;11.580;2022-07-06T03:57:38;95823.00;;;21.10
14023;BMP180;7086;48.116;11.580;2022-07-06T04:00:08;95822.00;;;21.20
14023;BMP180;7086;48.116;11.580;2022-07-06T04:02:36;95823.00;;;21.40
14023;BMP180;7086;48.116;11.580;2022-07-06T04:05:04;95825.00;;;21.60
14023;BMP180;7086;48.116;11.580;2022-07-06T04:07:32;95821.00;;;21.90
14023;BMP180;7086;48.116;11.580;2022-07-06T04:10:01;95822.00;;;22.10
14023;BMP180;7086;48.116;11.580;2022-07-06T04:12:29;95818.00;;;22.40
14023;BMP180;7086;48.116;11.580;2022-07-06T04:14:58;95827.00;;;22.50
14023;BMP180;7086;48.116;11.580;2022-07-06T04:17:26;95832.00;;;22.60
14023;BMP180;7086;48.116;11.580;2022-07-06T04:20:10;95833.00;;;22.70
14023;BMP180;7086;48.116;11.580;2022-07-06T04:22:39;95838.00;;;22.80
14023;BMP180;7086;48.116;11.580;2022-07-06T04:25:07;95829.00;;;22.80
14023;BMP180;7086;48.116;11.580;2022-07-06T04:27:36;95829.00;;;22.80
14023;BMP180;7086;48.116;11.580;2022-07-06T04:30:06;95837.00;;;22.90
14023;BMP180;7086;48.116;11.580;2022-07-06T04:32:34;95838.00;;;22.90
14023;BMP180;7086;48.116;11.580;2022-07-06T04:35:04;95835.00;;;22.80
14023;BMP180;7086;48.116;11.580;2022-07-06T04:37:46;95853.00;;;22.80
14023;BMP180;7086;48.116;11.580;2022-07-06T04:40:28;95846.00;;;22.80
14023;BMP180;7086;48.116;11.580;2022-07-06T04:43:10;95844.00;;;22.80
14023;BMP180;7086;48.116;11.580;2022-07-06T04:45:40;95844.00;;;22.80
14023;BMP180;7086;48.116;11.580;2022-07-06T04:48:08;95842.00;;;22.80
14023;BMP180;7086;48.116;11.580;2022-07-06T04:50:38;95837.00;;;22.90
14023;BMP180;7086;48.116;11.580;2022-07-06T04:53:07;95842.00;;;22.90
14023;BMP180;7086;48.116;11.580;2022-07-06T04:55:35;95837.00;;;22.90
14023;BMP180;7086;48.116;11.580;2022-07-06T04:58:16;95841.00;;;23.00
14023;BMP180;7086;48.116;11.580;2022-07-06T05:00:47;95842.00;;;23.10
14023;BMP180;7086;48.116;11.580;2022-07-06T05:03:16;95841.00;;;23.10
14023;BMP180;7086;48.116;11.580;2022-07-06T05:05:57;95841.00;;;23.20
14023;BMP180;7086;48.116;11.580;2022-07-06T05:08:27;95843.00;;;23.30
14023;BMP180;7086;48.116;11.580;2022-07-06T05:10:56;95849.00;;;23.40
14023;BMP180;7086;48.116;11.580;2022-07-06T05:13:26;95843.00;;;23.40
14023;BMP180;7086;48.116;11.580;2022-07-06T05:15:57;95852.00;;;23.50
14023;BMP180;7086;48.116;11.580;2022-07-06T05:18:26;95840.00;;;23.60
14023;BMP180;7086;48.116;11.580;2022-07-06T05:20:56;95838.00;;;23.70
14023;BMP180;7086;48.116;11.580;2022-07-06T05:23:38;95841.00;;;23.90
14023;BMP180;7086;48.116;11.580;2022-07-06T05:26:19;95846.00;;;24.00
14023;BMP180;7086;48.116;11.580;2022-07-06T05:28:51;95844.00;;;24.20
14023;BMP180;7086;48.116;11.580;2022-07-06T05:31:21;95853.00;;;24.30
14023;BMP180;7086;48.116;11.580;2022-07-06T05:33:50;95801.00;;;24.50
14023;BMP180;7086;48.116;11.580;2022-07-06T05:36:29;95852.00;;;24.90
14023;BMP180;7086;48.116;11.580;2022-07-06T05:38:59;95849.00;;;25.30
14023;BMP180;7086;48.116;11.580;2022-07-06T05:41:30;95851.00;;;25.80
14023;BMP180;7086;48.116;11.580;2022-07-06T05:43:59;95856.00;;;26.20
14023;BMP180;7086;48.116;11.580;2022-07-06T05:46:43;95859.00;;;26.70
14023;BMP180;7086;48.116;11.580;2022-07-06T05:49:11;95866.00;;;27.10
14023;BMP180;7086;48.116;11.580;2022-07-06T05:51:57;95868.00;;;27.60
14023;BMP180;7086;48.116;11.580;2022-07-06T05:54:32;95868.00;;;27.80
14023;BMP180;7086;48.116;11.580;2022-07-06T05:57:02;95874.00;;;28.10
14023;BMP180;7086;48.116;11.580;2022-07-06T05:59:55;95869.00;;;28.50
14023;BMP180;7086;48.116;11.580;2022-07-06T06:02:37;95864.00;;;28.80
14023;BMP180;7086;48.116;11.580;2022-07-06T06:05:08;95865.00;;;29.10
14023;BMP180;7086;48.116;11.580;2022-07-06T06:07:47;95864.00;;;29.50
14023;BMP180;7086;48.116;11.580;2022-07-06T06:10:18;95870.00;;;29.80
14023;BMP180;7086;48.116;11.580;2022-07-06T06:12:48;95873.00;;;30.20
14023;BMP180;7086;48.116;11.580;2022-07-06T06:15:18;95883.00;;;30.60
14023;BMP180;7086;48.116;11.580;2022-07-06T06:18:03;95874.00;;;31.10
14023;BMP180;7086;48.116;11.580;2022-07-06T06:20:33;95877.00;;;31.60
14023;BMP180;7086;48.116;11.580;2022-07-06T06:23:24;95884.00;;;32.20
14023;BMP180;7086;48.116;11.580;2022-07-06T06:25:56;95886.00;;;32.70
14023;BMP180;7086;48.116;11.580;2022-07-06T06:28:26;95882.00;;;33.20
14023;BMP180;7086;48.116;11.580;2022-07-06T06:30:55;95888.00;;;33.60
14023;BMP180;7086;48.116;11.580;2022-07-06T06:33:40;95888.00;;;34.00
14023;BMP180;7086;48.116;11.580;2022-07-06T06:36:16;95890.00;;;34.30
14023;BMP180;7086;48.116;11.580;2022-07-06T06:38:58;95888.00;;;34.50
14023;BMP180;7086;48.116;11.580;2022-07-06T06:41:39;95892.00;;;34.70
14023;BMP180;7086;48.116;11.580;2022-07-06T06:44:21;95886.00;;;34.80
14023;BMP180;7086;48.116;11.580;2022-07-06T06:46:50;95892.00;;;35.00
14023;BMP180;7086;48.116;11.580;2022-07-06T06:49:22;95893.00;;;35.00
14023;BMP180;7086;48.116;11.580;2022-07-06T06:51:51;95892.00;;;35.00
14023;BMP180;7086;48.116;11.580;2022-07-06T06:54:20;95894.00;;;35.10
14023;BMP180;7086;48.116;11.580;2022-07-06T06:56:48;95890.00;;;35.10
14023;BMP180;7086;48.116;11.580;2022-07-06T06:59:17;95888.00;;;35.20
14023;BMP180;7086;48.116;11.580;2022-07-06T07:01:46;95896.00;;;35.30
14023;BMP180;7086;48.116;11.580;2022-07-06T07:04:46;95896.00;;;35.40
14023;BMP180;7086;48.116;11.580;2022-07-06T07:07:16;95889.00;;;35.40
14023;BMP180;7086;48.116;11.580;2022-07-06T07:09:58;95893.00;;;35.50
14023;BMP180;7086;48.116;11.580;2022-07-06T07:12:29;95899.00;;;35.60
14023;BMP180;7086;48.116;11.580;2022-07-06T07:15:02;95898.00;;;35.80
14023;BMP180;7086;48.116;11.580;2022-07-06T07:17:44;95892.00;;;35.90
14023;BMP180;7086;48.116;11.580;2022-07-06T07:20:29;95892.00;;;36.00
14023;BMP180;7086;48.116;11.580;2022-07-06T07:22:59;95896.00;;;36.10
14023;BMP180;7086;48.116;11.580;2022-07-06T07:25:29;95901.00;;;36.10
14023;BMP180;7086;48.116;11.580;2022-07-06T07:27:58;95903.00;;;36.10
14023;BMP180;7086;48.116;11.580;2022-07-06T07:30:27;95899.00;;;36.20
14023;BMP180;7086;48.116;11.580;2022-07-06T07:32:58;95899.00;;;36.40
14023;BMP180;7086;48.116;11.580;2022-07-06T07:38:26;95905.00;;;36.70
14023;BMP180;7086;48.116;11.580;2022-07-06T07:41:10;95906.00;;;36.70
14023;BMP180;7086;48.116;11.580;2022-07-06T07:43:48;95896.00;;;36.70
14023;BMP180;7086;48.116;11.580;2022-07-06T07:46:17;95899.00;;;36.70
14023;BMP180;7086;48.116;11.580;2022-07-06T07:48:49;95900.00;;;36.60
14023;BMP180;7086;48.116;11.580;2022-07-06T07:51:18;95906.00;;;36.60
14023;BMP180;7086;48.116;11.580;2022-07-06T07:53:49;95906.00;;;36.70
14023;BMP180;7086;48.116;11.580;2022-07-06T07:56:18;95902.00;;;37.00
14023;BMP180;7086;48.116;11.580;2022-07-06T07:58:59;95898.00;;;37.30
14023;BMP180;7086;48.116;11.580;2022-07-06T08:01:27;95900.00;;;37.40
14023;BMP180;7086;48.116;11.580;2022-07-06T08:04:04;95867.00;;;37.50
14023;BMP180;7086;48.116;11.580;2022-07-06T08:06:34;95896.00;;;37.70
14023;BMP180;7086;48.116;11.580;2022-07-06T08:09:24;95895.00;;;37.90
14023;BMP180;7086;48.116;11.580;2022-07-06T08:11:53;95906.00;;;38.10
14023;BMP180;7086;48.116;11.580;2022-07-06T08:14:35;95900.00;;;38.20
14023;BMP180;7086;48.116;11.580;2022-07-06T08:17:04;95900.00;;;38.40
14023;BMP180;7086;48.116;11.580;2022-07-06T08:19:48;95905.00;;;38.60
14023;BMP180;7086;48.116;11.580;2022-07-06T08:22:17;95906.00;;;38.70
14023;BMP180;7086;48.116;11.580;2022-07-06T08:38:46;95918.00;;;39.50
14023;BMP180;7086;48.116;11.580;2022-07-06T08:41:17;95917.00;;;39.40
14023;BMP180;7086;48.116;11.580;2022-07-06T08:43:46;95914.00;;;39.30
14023;BMP180;7086;48.116;11.580;2022-07-06T08:46:22;95909.00;;;39.10
14023;BMP180;7086;48.116;11.580;2022-07-06T08:48:52;95917.00;;;38.90
14023;BMP180;7086;48.116;11.580;2022-07-06T08:51:29;95911.00;;;38.70
14023;BMP180;7086;48.116;11.580;2022-07-06T08:54:02;95916.00;;;38.50
14023;BMP180;7086;48.116;11.580;2022-07-06T08:56:32;95916.00;;;38.30
14023;BMP180;7086;48.116;11.580;2022-07-06T08:59:03;95921.00;;;38.40
14023;BMP180;7086;48.116;11.580;2022-07-06T09:01:35;95924.00;;;38.40
14023;BMP180;7086;48.116;11.580;2022-07-06T09:04:25;95932.00;;;38.40
14023;BMP180;7086;48.116;11.580;2022-07-06T09:07:07;95935.00;;;38.50
14023;BMP180;7086;48.116;11.580;2022-07-06T09:09:38;95924.00;;;38.40
14023;BMP180;7086;48.116;11.580;2022-07-06T09:12:12;95934.00;;;38.20
14023;BMP180;7086;48.116;11.580;2022-07-06T09:14:41;95933.00;;;37.90
14023;BMP180;7086;48.116;11.580;2022-07-06T09:17:26;95937.00;;;37.70
14023;BMP180;7086;48.116;11.580;2022-07-06T09:20:09;95941.00;;;37.70
14023;BMP180;7086;48.116;11.580;2022-07-06T09:22:53;95936.00;;;37.80
14023;BMP180;7086;48.116;11.580;2022-07-06T09:51:41;95943.00;;;36.60
14023;BMP180;7086;48.116;11.580;2022-07-06T09:54:23;95946.00;;;36.50
14023;BMP180;7086;48.116;11.580;2022-07-06T09:57:06;95939.00;;;36.60
14023;BMP180;7086;48.116;11.580;2022-07-06T09:59:51;95934.00;;;36.70
14023;BMP180;7086;48.116;11.580;2022-07-06T10:02:21;95941.00;;;36.90
14023;BMP180;7086;48.116;11.580;2022-07-06T10:05:11;95937.00;;;36.90
14023;BMP180;7086;48.116;11.580;2022-07-06T10:30:17;95931.00;;;35.30
14023;BMP180;7086;48.116;11.580;2022-07-06T10:32:49;95930.00;;;35.00
14023;BMP180;7086;48.116;11.580;2022-07-06T10:35:20;95934.00;;;34.80
14023;BMP180;7086;48.116;11.580;2022-07-06T10:38:06;95930.00;;;34.90
14023;BMP180;7086;48.116;11.580;2022-07-06T10:40:49;95918.00;;;35.10
14023;BMP180;7086;48.116;11.580;2022-07-06T11:00:28;95888.00;;;35.40
14023;BMP180;7086;48.116;11.580;2022-07-06T11:03:38;95916.00;;;35.60
14023;BMP180;7086;48.116;11.580;2022-07-06T11:06:33;95933.00;;;35.80
14023;BMP180;7086;48.116;11.580;2022-07-06T11:09:32;95926.00;;;35.90
14023;BMP180;7086;48.116;11.580;2022-07-06T11:12:16;95918.00;;;36.00
14023;BMP180;7086;48.116;11.580;2022-07-06T11:14:59;95922.00;;;36.10
14023;BMP180;7086;48.116;11.580;2022-07-06T11:24:23;95924.00;;;36.60
14023;BMP180;7086;48.116;11.580;2022-07-06T11:27:06;95917.00;;;36.70
14023;BMP180;7086;48.116;11.580;2022-07-06T11:29:48;95914.00;;;37.00
14023;BMP180;7086;48.116;11.580;2022-07-06T11:32:24;95913.00;;;37.20
14023;BMP180;7086;48.116;11.580;2022-07-06T11:34:56;95924.00;;;37.30
14023;BMP180;7086;48.116;11.580;2022-07-06T11:37:38;95915.00;;;37.10
14023;BMP180;7086;48.116;11.580;2022-07-06T11:46:41;95910.00;;;35.90
14023;BMP180;7086;48.116;11.580;2022-07-06T11:49:24;95901.00;;;35.50
14023;BMP180;7086;48.116;11.580;2022-07-06T11:51:57;95900.00;;;35.20
14023;BMP180;7086;48.116;11.580;2022-07-06T11:54:41;95906.00;;;34.90
14023;BMP180;7086;48.116;11.580;2022-07-06T11:57:23;95892.00;;;34.60
14023;BMP180;7086;48.116;11.580;2022-07-06T12:00:06;95885.00;;;34.30
14023;BMP180;7086;48.116;11.580;2022-07-06T12:03:09;95893.00;;;34.00
14023;BMP180;7086;48.116;11.580;2022-07-06T12:05:45;95876.00;;;33.80
14023;BMP180;7086;48.116;11.580;2022-07-06T12:08:27;95891.00;;;33.50
14023;BMP180;7086;48.116;11.580;2022-07-06T12:11:10;95881.00;;;33.30
14023;BMP180;7086;48.116;11.580;2022-07-06T12:14:13;95877.00;;;33.00
14023;BMP180;7086;48.116;11.580;2022-07-06T12:16:55;95879.00;;;32.80
14023;BMP180;7086;48.116;11.580;2022-07-06T12:55:30;95850.00;;;31.50
14023;BMP180;7086;48.116;11.580;2022-07-06T12:58:00;95849.00;;;31.40
14023;BMP180;7086;48.116;11.580;2022-07-06T13:00:45;95842.00;;;31.40
14023;BMP180;7086;48.116;11.580;2022-07-06T13:48:02;95833.00;;;32.30
14023;BMP180;7086;48.116;11.580;2022-07-06T13:50:30;95832.00;;;32.30
14023;BMP180;7086;48.116;11.580;2022-07-06T13:52:59;95833.00;;;32.30
14023;BMP180;7086;48.116;11.580;2022-07-06T13:55:36;95831.00;;;32.30
14023;BMP180;7086;48.116;11.580;2022-07-06T13:58:20;95821.00;;;32.20
14023;BMP180;7086;48.116;11.580;2022-07-06T14:01:02;95825.00;;;32.20
14023;BMP180;7086;48.116;11.580;2022-07-06T14:07:03;95818.00;;;32.00
14023;BMP180;7086;48.116;11.580;2022-07-06T14:09:33;95822.00;;;32.00
14023;BMP180;7086;48.116;11.580;2022-07-06T14:12:01;95810.00;;;31.90
14023;BMP180;7086;48.116;11.580;2022-07-06T14:14:34;95818.00;;;31.80
14023;BMP180;7086;48.116;11.580;2022-07-06T14:17:20;95819.00;;;32.00
14023;BMP180;7086;48.116;11.580;2022-07-06T14:19:48;95808.00;;;32.00
14023;BMP180;7086;48.116;11.580;2022-07-06T14:22:21;95811.00;;;32.00
14023;BMP180;7086;48.116;11.580;2022-07-06T14:24:51;95812.00;;;32.00
14023;BMP180;7086;48.116;11.580;2022-07-06T14:27:20;95802.00;;;32.10
14023;BMP180;7086;48.116;11.580;2022-07-06T14:29:49;95798.00;;;32.00
14023;BMP180;7086;48.116;11.580;2022-07-06T14:32:19;95785.00;;;32.00
14023;BMP180;7086;48.116;11.580;2022-07-06T14:34:52;95786.00;;;32.00
14023;BMP180;7086;48.116;11.580;2022-07-06T14:40:38;95783.00;;;32.00
14023;BMP180;7086;48.116;11.580;2022-07-06T14:43:10;95787.00;;;32.00
14023;BMP180;7086;48.116;11.580;2022-07-06T14:45:53;95789.00;;;32.00
14023;BMP180;7086;48.116;11.580;2022-07-06T14:48:35;95780.00;;;32.00
14023;BMP180;7086;48.116;11.580;2022-07-06T14:51:08;95784.00;;;32.00
14023;BMP180;7086;48.116;11.580;2022-07-06T14:53:50;95784.00;;;32.00
14023;BMP180;7086;48.116;11.580;2022-07-06T14:56:50;95797.00;;;31.90
14023;BMP180;7086;48.116;11.580;2022-07-06T14:59:35;95790.00;;;31.80
14023;BMP180;7086;48.116;11.580;2022-07-06T15:02:04;95784.00;;;31.70
14023;BMP180;7086;48.116;11.580;2022-07-06T15:04:33;95791.00;;;31.70
14023;BMP180;7086;48.116;11.580;2022-07-06T15:07:01;95782.00;;;31.60
14023;BMP180;7086;48.116;11.580;2022-07-06T15:09:31;95785.00;;;31.50
14023;BMP180;7086;48.116;11.580;2022-07-06T15:12:00;95784.00;;;31.50
14023;BMP180;7086;48.116;11.580;2022-07-06T15:14:29;95773.00;;;31.40
14023;BMP180;7086;48.116;11.580;2022-07-06T15:16:58;95777.00;;;31.30
14023;BMP180;7086;48.116;11.580;2022-07-06T15:19:26;95768.00;;;31.30
14023;BMP180;7086;48.116;11.580;2022-07-06T15:21:58;95763.00;;;31.30
14023;BMP180;7086;48.116;11.580;2022-07-06T15:24:29;95775.00;;;31.30
14023;BMP180;7086;48.116;11.580;2022-07-06T15:27:14;95768.00;;;31.20
14023;BMP180;7086;48.116;11.580;2022-07-06T15:29:41;95766.00;;;31.20
14023;BMP180;7086;48.116;11.580;2022-07-06T15:32:09;95771.00;;;31.20
14023;BMP180;7086;48.116;11.580;2022-07-06T15:34:38;95763.00;;;31.10
14023;BMP180;7086;48.116;11.580;2022-07-06T15:37:23;95761.00;;;31.10
14023;BMP180;7086;48.116;11.580;2022-07-06T15:39:56;95765.00;;;31.10
14023;BMP180;7086;48.116;11.580;2022-07-06T15:42:29;95754.00;;;31.10
14023;BMP180;7086;48.116;11.580;2022-07-06T15:45:03;95766.00;;;31.10
14023;BMP180;7086;48.116;11.580;2022-07-06T15:47:32;95764.00;;;31.10
14023;BMP180;7086;48.116;11.580;2022-07-06T15:50:03;95766.00;;;31.10
14023;BMP180;7086;48.116;11.580;2022-07-06T15:52:31;95766.00;;;31.00
14023;BMP180;7086;48.116;11.580;2022-07-06T15:55:13;95769.00;;;31.00
14023;BMP180;7086;48.116;11.580;2022-07-06T15:57:46;95755.00;;;31.00
14023;BMP180;7086;48.116;11.580;2022-07-06T16:00:15;95755.00;;;30.90
14023;BMP180;7086;48.116;11.580;2022-07-06T16:02:43;95767.00;;;30.80
14023;BMP180;7086;48.116;11.580;2022-07-06T16:05:11;95765.00;;;30.80
14023;BMP180;7086;48.116;11.580;2022-07-06T16:07:48;95759.00;;;30.60
14023;BMP180;7086;48.116;11.580;2022-07-06T16:10:22;95753.00;;;30.60
14023;BMP180;7086;48.116;11.580;2022-07-06T16:12:57;95752.00;;;30.50
14023;BMP180;7086;48.116;11.580;2022-07-06T16:15:26;95768.00;;;30.40
14023;BMP180;7086;48.116;11.580;2022-07-06T16:18:05;95766.00;;;30.40
14023;BMP180;7086;48.116;11.580;2022-07-06T16:20:40;95759.00;;;30.30
14023;BMP180;7086;48.116;11.580;2022-07-06T16:23:12;95755.00;;;30.30
14023;BMP180;7086;48.116;11.580;2022-07-06T16:25:41;95754.00;;;30.30
14023;BMP180;7086;48.116;11.580;2022-07-06T16:28:18;95765.00;;;30.20
14023;BMP180;7086;48.116;11.580;2022-07-06T16:30:52;95765.00;;;30.20
14023;BMP180;7086;48.116;11.580;2022-07-06T16:33:24;95758.00;;;30.20
14023;BMP180;7086;48.116;11.580;2022-07-06T16:36:09;95763.00;;;30.10
14023;BMP180;7086;48.116;11.580;2022-07-06T16:38:39;95758.00;;;30.10
14023;BMP180;7086;48.116;11.580;2022-07-06T16:41:08;95752.00;;;30.10
14023;BMP180;7086;48.116;11.580;2022-07-06T16:46:10;95757.00;;;30.00
14023;BMP180;7086;48.116;11.580;2022-07-06T16:49:01;95749.00;;;29.90
14023;BMP180;7086;48.116;11.580;2022-07-06T16:51:29;95741.00;;;29.80
14023;BMP180;7086;48.116;11.580;2022-07-06T16:53:58;95757.00;;;29.80
14023;BMP180;7086;48.116;11.580;2022-07-06T16:56:27;95746.00;;;29.70
14023;BMP180;7086;48.116;11.580;2022-07-06T16:58:55;95753.00;;;29.70
14023;BMP180;7086;48.116;11.580;2022-07-06T17:01:25;95744.00;;;29.60
14023;BMP180;7086;48.116;11.580;2022-07-06T17:03:56;95750.00;;;29.60
14023;BMP180;7086;48.116;11.580;2022-07-06T17:06:27;95748.00;;;29.50
14023;BMP180;7086;48.116;11.580;2022-07-06T17:08:55;95743.00;;;29.50
14023;BMP180;7086;48.116;11.580;2022-07-06T17:11:23;95743.00;;;29.40
14023;BMP180;7086;48.116;11.580;2022-07-06T17:13:52;95742.00;;;29.40
14023;BMP180;7086;48.116;11.580;2022-07-06T17:16:20;95746.00;;;29.40
14023;BMP180;7086;48.116;11.580;2022-07-06T17:18:56;95741.00;;;29.30
14023;BMP180;7086;48.116;11.580;2022-07-06T17:21:24;95752.00;;;29.30
14023;BMP180;7086;48.116;11.580;2022-07-06T17:23:56;95748.00;;;29.20
14023;BMP180;7086;48.116;11.580;2022-07-06T17:26:24;95744.00;;;29.20
14023;BMP180;7086;48.116;11.580;2022-07-06T17:28:52;95743.00;;;29.10
14023;BMP180;7086;48.116;11.580;2022-07-06T17:31:25;95750.00;;;29.10
14023;BMP180;7086;48.116;11.580;2022-07-06T17:33:58;95737.00;;;29.00
14023;BMP180;7086;48.116;11.580;2022-07-06T17:36:28;95748.00;;;29.00
14023;BMP180;7086;48.116;11.580;2022-07-06T17:38:59;95740.00;;;28.90
14023;BMP180;7086;48.116;11.580;2022-07-06T17:41:27;95749.00;;;28.90
14023;BMP180;7086;48.116;11.580;2022-07-06T17:43:54;95742.00;;;28.90
14023;BMP180;7086;48.116;11.580;2022-07-06T17:46:23;95744.00;;;28.80
14023;BMP180;7086;48.116;11.580;2022-07-06T17:48:52;95749.00;;;28.80